Terminal Aerodrome Forecast
Issued by NWS

Home | Current Version | Previous Version | Text Only | Print | Product List | Glossary Off
Versions: 1 2 3 4 5 6 7 8 9 10 11 12 13 14 15

000
FTUS43 KMPX 191743
TAFRWF
TAF
KRWF 191743Z 1918/2018 15018G30KT P6SM BKN015
     FM200200 14020G28KT P6SM BKN020 WS018/16050KT
     FM200600 17018G25KT 6SM -TSRA BKN020CB OVC040
     FM200800 22011KT P6SM BKN020
     FM201400 28011G18KT P6SM SKC=

USA.gov is the U.S. government's official web portal to all federal, state and local government web resources and services.